createdAt,value
2017-07-07T00:07:36.713Z,0
2017-07-07T00:17:51.860Z,0
2017-07-07T00:28:07.427Z,0
2017-07-07T00:38:22.403Z,0
2017-07-07T00:48:37.768Z,0
2017-07-07T00:58:51.775Z,0
2017-07-07T01:09:05.499Z,0
2017-07-07T01:19:20.944Z,0
2017-07-07T01:29:34.795Z,0
2017-07-07T01:39:48.811Z,0
2017-07-07T01:50:03.344Z,0
2017-07-07T02:00:18.824Z,0
2017-07-07T02:10:32.616Z,0
2017-07-07T02:20:47.692Z,0
2017-07-07T02:31:02.784Z,0
2017-07-07T02:41:17.419Z,0
2017-07-07T02:51:31.823Z,0
2017-07-07T03:01:46.579Z,0
2017-07-07T03:12:01.370Z,0
2017-07-07T03:22:15.174Z,5
2017-07-07T03:32:29.179Z,5
2017-07-07T03:42:44.802Z,0
2017-07-07T03:52:58.806Z,5
2017-07-07T04:03:12.562Z,35
2017-07-07T04:13:27.187Z,60
2017-07-07T04:23:41.812Z,100
2017-07-07T04:33:57.513Z,140
2017-07-07T04:44:11.928Z,205
2017-07-07T04:54:25.780Z,240
2017-07-07T05:04:40.520Z,260
2017-07-07T05:14:55.661Z,285
2017-07-07T05:25:10.874Z,290
2017-07-07T05:35:25.248Z,300
2017-07-07T05:45:40.094Z,290
2017-07-07T05:55:54.781Z,315
2017-07-07T06:06:08.610Z,485
2017-07-07T06:16:24.626Z,770
2017-07-07T06:26:39.212Z,940
2017-07-07T06:36:53.600Z,945
2017-07-07T06:47:09.015Z,1030
2017-07-07T06:57:24.268Z,1105
2017-07-07T07:07:38.503Z,1125
2017-07-07T07:17:53.183Z,570
2017-07-07T07:28:08.534Z,1230
2017-07-07T07:38:24.328Z,1325
2017-07-07T07:48:39.750Z,1290
2017-07-07T07:58:54.078Z,1030
2017-07-07T08:09:09.974Z,1415
2017-07-07T08:19:24.337Z,1465
2017-07-07T08:29:40.294Z,1510
2017-07-07T08:39:56.088Z,1615
2017-07-07T08:50:10.394Z,1805
2017-07-07T09:00:26.124Z,1405
2017-07-07T09:10:41.353Z,1790
2017-07-07T09:20:56.382Z,1670
2017-07-07T09:31:11.283Z,1405
2017-07-07T09:41:26.282Z,1730
2017-07-07T09:51:41.495Z,1425
2017-07-07T10:01:56.779Z,1405
2017-07-07T10:12:11.309Z,950
2017-07-07T10:22:26.885Z,870
2017-07-07T10:32:41.832Z,2010
2017-07-07T10:42:56.076Z,920
2017-07-07T10:53:10.133Z,1380
2017-07-07T11:03:25.685Z,2105
2017-07-07T11:13:40.578Z,1080
2017-07-07T11:23:55.297Z,1210
2017-07-07T11:34:09.645Z,1495
2017-07-07T11:44:23.926Z,1200
2017-07-07T11:54:39.078Z,1125
2017-07-07T12:04:53.300Z,2330
2017-07-07T12:15:08.679Z,755
2017-07-07T12:25:22.897Z,865
2017-07-07T12:35:37.815Z,2210
2017-07-07T12:45:51.839Z,1165
2017-07-07T12:56:07.143Z,1850
2017-07-07T13:06:22.548Z,1235
2017-07-07T13:16:37.900Z,940
2017-07-07T13:26:53.560Z,1670
2017-07-07T13:37:08.521Z,820
2017-07-07T13:47:24.190Z,455
2017-07-07T13:57:38.655Z,1415
2017-07-07T14:07:54.479Z,1560
2017-07-07T14:18:09.846Z,1485
2017-07-07T14:28:24.562Z,2275
2017-07-07T14:38:39.409Z,490
2017-07-07T14:48:55.163Z,440
2017-07-07T14:59:09.842Z,305
2017-07-07T15:09:25.265Z,270
2017-07-07T15:19:41.001Z,275
2017-07-07T15:29:55.303Z,555
2017-07-07T15:40:10.169Z,1055
2017-07-07T15:50:23.606Z,975
2017-07-07T16:00:38.813Z,980
2017-07-07T16:10:53.914Z,955
2017-07-07T16:21:08.160Z,700
2017-07-07T16:31:23.154Z,750
2017-07-07T16:41:37.171Z,750
2017-07-07T16:51:51.416Z,565
2017-07-07T17:02:05.422Z,520
2017-07-07T17:12:21.148Z,485
2017-07-07T17:22:36.035Z,420
2017-07-07T17:32:49.987Z,370
2017-07-07T17:43:05.023Z,295
2017-07-07T17:53:19.193Z,340
2017-07-07T18:03:34.627Z,240
2017-07-07T18:13:48.559Z,245
2017-07-07T18:24:04.234Z,190
2017-07-07T18:34:18.692Z,130
2017-07-07T18:44:33.032Z,100
2017-07-07T18:54:47.499Z,85
2017-07-07T19:05:02.671Z,65
2017-07-07T19:15:17.769Z,50
2017-07-07T19:25:31.970Z,40
2017-07-07T19:35:46.877Z,15
2017-07-07T19:46:01.745Z,10
2017-07-07T19:56:17.109Z,5
2017-07-07T20:06:31.390Z,0
2017-07-07T20:16:45.953Z,0
2017-07-07T20:27:01.696Z,0
2017-07-07T20:37:17.176Z,0
2017-07-07T20:47:31.115Z,0
2017-07-07T20:57:45.601Z,0
2017-07-07T21:08:01.036Z,0
2017-07-07T21:18:14.864Z,0
2017-07-07T21:28:28.980Z,0
2017-07-07T21:38:44.537Z,0
2017-07-07T21:48:58.728Z,0
2017-07-07T21:59:12.729Z,0
2017-07-07T22:09:28.168Z,0
2017-07-07T22:19:42.759Z,0
2017-07-07T22:29:56.943Z,0
2017-07-07T22:40:11.141Z,0
2017-07-07T22:50:25.701Z,0
2017-07-07T23:00:40.520Z,0
2017-07-07T23:10:55.963Z,0
2017-07-07T23:21:11.745Z,0
2017-07-07T23:31:26.266Z,0
2017-07-07T23:41:40.339Z,0
2017-07-07T23:51:55.146Z,0
